Time;durP1;ratioP1;P1;durP2;ratioP2;P2;SDS_P1;SDS_P2;PMS_P1;PMS_P2;Temp;Humidity;BMP_temperature;BMP_pressure;BME280_temperature;BME280_humidity;BME280_pressure;Samples;Min_cycle;Max_cycle;Signal;HPM_P1;HPM_P2
2023/07/19 00:00:57;;;;;;;;;;;;;;;20.81;52.44;99550.28;10327546;28;921;-66
2023/07/19 00:05:53;;;;;;;;;;;;;;;20.81;52.59;99545.00;10326652;28;821;-67
2023/07/19 00:10:49;;;;;;;;;;;;;;;20.79;52.43;99548.56;10326534;28;878;-66
2023/07/19 00:15:45;;;;;;;;;;;;;;;20.79;52.44;99550.38;10326931;28;1963;-66
2023/07/19 00:20:41;;;;;;;;;;;;;;;20.79;52.46;99559.16;10325674;28;900;-66
2023/07/19 00:25:36;;;;;;;;;;;;;;;20.79;52.42;99553.84;10326177;28;940;-66
2023/07/19 00:30:32;;;;;;;;;;;;;;;20.78;52.33;99556.63;10325857;28;1248;-66
2023/07/19 00:35:28;;;;;;;;;;;;;;;20.79;52.37;99555.66;10325899;28;1917;-66
2023/07/19 00:40:24;;;;;;;;;;;;;;;20.78;52.50;99546.88;10326655;28;839;-66
2023/07/19 00:45:20;;;;;;;;;;;;;;;20.78;52.34;99535.44;10326306;28;846;-66
2023/07/19 00:50:16;;;;;;;;;;;;;;;20.77;52.52;99523.09;10324948;28;995;-67
2023/07/19 00:55:12;;;;;;;;;;;;;;;20.77;52.54;99512.50;10326288;28;1918;-66
2023/07/19 01:00:08;;;;;;;;;;;;;;;20.77;52.45;99502.75;10325974;28;852;-66
2023/07/19 01:05:03;;;;;;;;;;;;;;;20.77;52.45;99496.63;10325632;28;793;-66
2023/07/19 01:09:59;;;;;;;;;;;;;;;20.76;52.41;99495.78;10326434;28;876;-66
2023/07/19 01:14:55;;;;;;;;;;;;;;;20.76;52.35;99492.28;10325054;28;1955;-66
2023/07/19 01:19:51;;;;;;;;;;;;;;;20.74;52.40;99489.72;10325155;28;1067;-66
2023/07/19 01:24:47;;;;;;;;;;;;;;;20.74;52.48;99487.06;10324889;28;940;-67
2023/07/19 01:29:43;;;;;;;;;;;;;;;20.74;52.48;99476.47;10324960;28;1017;-66
2023/07/19 01:34:39;;;;;;;;;;;;;;;20.75;52.25;99470.25;10325224;28;1971;-66
2023/07/19 01:39:35;;;;;;;;;;;;;;;20.73;52.29;99464.19;10325809;28;1031;-66
2023/07/19 01:44:31;;;;;;;;;;;;;;;20.73;52.27;99463.34;10329800;28;949;-66
2023/07/19 01:49:26;;;;;;;;;;;;;;;20.73;52.36;99465.97;10332093;28;795;-66
2023/07/19 01:54:22;;;;;;;;;;;;;;;20.73;52.40;99464.19;10332563;28;1898;-66
2023/07/19 01:59:18;;;;;;;;;;;;;;;20.73;52.35;99458.03;10332414;28;831;-66
2023/07/19 02:04:14;;;;;;;;;;;;;;;20.71;52.30;99455.47;10331649;28;893;-66
2023/07/19 02:09:10;;;;;;;;;;;;;;;20.71;52.27;99446.66;10331452;28;1070;-66
2023/07/19 02:14:06;;;;;;;;;;;;;;;20.70;52.32;99437.03;10331167;28;1890;-66
2023/07/19 02:19:02;;;;;;;;;;;;;;;20.70;52.39;99439.69;10332103;28;908;-66
2023/07/19 02:23:57;;;;;;;;;;;;;;;20.69;52.29;99440.59;10331375;28;825;-66
2023/07/19 02:28:53;;;;;;;;;;;;;;;20.70;52.32;99437.88;10330639;28;943;-66
2023/07/19 02:33:49;;;;;;;;;;;;;;;20.69;52.18;99433.50;10331388;28;1917;-66
2023/07/19 02:38:45;;;;;;;;;;;;;;;20.70;52.36;99437.03;10330918;28;794;-66
2023/07/19 02:43:41;;;;;;;;;;;;;;;20.68;52.39;99445.06;10330858;28;870;-66
2023/07/19 02:48:37;;;;;;;;;;;;;;;20.67;52.31;99437.19;10330495;28;976;-66
2023/07/19 02:53:33;;;;;;;;;;;;;;;20.67;52.34;99434.53;10329094;28;1906;-66
2023/07/19 02:58:29;;;;;;;;;;;;;;;20.66;52.26;99435.50;10330264;28;810;-66
2023/07/19 03:03:25;;;;;;;;;;;;;;;20.66;52.26;99436.34;10328650;28;957;-66
2023/07/19 03:08:21;;;;;;;;;;;;;;;20.65;52.29;99437.31;10329149;28;754;-66
2023/07/19 03:13:17;;;;;;;;;;;;;;;20.64;52.34;99432.94;10329907;28;1960;-66
2023/07/19 03:18:13;;;;;;;;;;;;;;;20.64;52.34;99435.59;10329335;28;833;-66
2023/07/19 03:23:08;;;;;;;;;;;;;;;20.63;52.42;99433.03;10328144;28;888;-66
2023/07/19 03:28:04;;;;;;;;;;;;;;;20.62;52.34;99437.50;10328285;28;872;-66
2023/07/19 03:33:00;;;;;;;;;;;;;;;20.62;52.35;99442.78;10327317;28;1906;-66
2023/07/19 03:37:56;;;;;;;;;;;;;;;20.61;52.42;99434.91;10327357;28;967;-66
2023/07/19 03:42:52;;;;;;;;;;;;;;;20.61;52.37;99438.41;10327719;28;976;-66
2023/07/19 03:47:48;;;;;;;;;;;;;;;20.61;52.28;99434.91;10327363;28;1219;-66
2023/07/19 03:52:44;;;;;;;;;;;;;;;20.60;52.35;99439.38;10327811;28;1952;-66
2023/07/19 03:57:39;;;;;;;;;;;;;;;20.60;52.25;99441.19;10327161;28;971;-66
2023/07/19 04:02:35;;;;;;;;;;;;;;;20.59;52.33;99435.00;10328355;28;995;-66
2023/07/19 04:07:31;;;;;;;;;;;;;;;20.58;52.26;99435.97;10326747;28;829;-66
2023/07/19 04:12:27;;;;;;;;;;;;;;;20.58;52.20;99443.91;10326528;28;1897;-66
2023/07/19 04:17:23;;;;;;;;;;;;;;;20.57;52.45;99445.69;10326457;28;818;-66
2023/07/19 04:22:19;;;;;;;;;;;;;;;20.56;52.48;99435.19;10326329;28;857;-66
2023/07/19 04:27:15;;;;;;;;;;;;;;;20.55;52.36;99433.50;10326167;28;768;-66
2023/07/19 04:32:11;;;;;;;;;;;;;;;20.55;52.38;99436.16;10325968;28;1973;-66
2023/07/19 04:37:08;;;;;;;;;;;;;;;20.54;52.34;99437.06;10325813;28;1093;-66
2023/07/19 04:42:04;;;;;;;;;;;;;;;20.55;52.46;99452.88;10326533;28;802;-66
2023/07/19 04:46:59;;;;;;;;;;;;;;;20.54;52.41;99447.66;10325829;28;859;-66
2023/07/19 04:51:56;;;;;;;;;;;;;;;20.54;52.47;99447.66;10325588;28;856;-66
2023/07/19 04:56:53;;;;;;;;;;;;;;;20.53;52.35;99440.66;10325336;28;1967;-66
2023/07/19 05:01:49;;;;;;;;;;;;;;;20.54;52.43;99460.91;10325332;28;814;-66
2023/07/19 05:06:45;;;;;;;;;;;;;;;20.57;52.39;99458.09;10324670;28;984;-66
2023/07/19 05:11:40;;;;;;;;;;;;;;;20.62;52.35;99449.84;10325519;28;797;-67
2023/07/19 05:16:36;;;;;;;;;;;;;;;20.62;52.46;99456.03;10324801;28;1956;-66
2023/07/19 05:21:32;;;;;;;;;;;;;;;20.61;52.36;99472.84;10332623;28;1063;-67
2023/07/19 05:26:28;;;;;;;;;;;;;;;20.62;52.55;99453.38;10333678;28;895;-66
2023/07/19 05:31:24;;;;;;;;;;;;;;;20.63;52.36;99455.06;10333075;28;1153;-67
2023/07/19 05:36:20;;;;;;;;;;;;;;;20.67;52.37;99458.38;10333274;28;1910;-66
2023/07/19 05:41:16;;;;;;;;;;;;;;;20.64;52.52;99463.88;10332628;28;976;-67
2023/07/19 05:46:11;;;;;;;;;;;;;;;20.64;52.48;99474.47;10314632;28;889;-66
2023/07/19 05:51:07;;;;;;;;;;;;;;;20.63;52.58;99468.31;10332124;28;778;-67
2023/07/19 05:56:03;;;;;;;;;;;;;;;20.62;52.50;99466.63;10331868;28;1951;-66
2023/07/19 06:00:59;;;;;;;;;;;;;;;20.64;52.46;99474.47;10333304;28;968;-65
2023/07/19 06:05:55;;;;;;;;;;;;;;;20.62;52.60;99469.28;10332071;28;818;-66
2023/07/19 06:10:51;;;;;;;;;;;;;;;20.60;52.62;99465.84;10330250;28;1113;-67
2023/07/19 06:15:47;;;;;;;;;;;;;;;20.62;52.41;99471.91;10330734;28;1898;-69
2023/07/19 06:20:43;;;;;;;;;;;;;;;20.61;52.44;99475.50;10330966;28;773;-67
2023/07/19 06:25:39;;;;;;;;;;;;;;;20.61;52.32;99482.59;10324019;28;1058;-66
2023/07/19 06:30:35;;;;;;;;;;;;;;;20.61;52.43;99472.00;10329722;28;1320;-66
2023/07/19 06:35:30;;;;;;;;;;;;;;;20.59;52.38;99477.38;10330052;28;1972;-67
2023/07/19 06:40:26;;;;;;;;;;;;;;;20.60;52.34;99478.25;10330567;28;874;-66
2023/07/19 06:45:22;;;;;;;;;;;;;;;20.61;52.22;99477.28;10327627;28;1130;-67
2023/07/19 06:50:18;;;;;;;;;;;;;;;20.57;52.31;99466.03;10329615;28;794;-66
2023/07/19 06:55:14;;;;;;;;;;;;;;;20.57;52.33;99471.34;10327841;28;1894;-66
2023/07/19 07:00:10;;;;;;;;;;;;;;;20.58;52.02;99473.88;10329945;28;857;-66
2023/07/19 07:05:06;;;;;;;;;;;;;;;20.60;51.98;99472.94;10329531;28;779;-66
2023/07/19 07:10:05;;;;;;;;;;;;;;;20.59;52.17;99474.72;10329766;28;881;-66
2023/07/19 07:15:02;;;;;;;;;;;;;;;20.58;51.98;99475.69;10328896;28;1961;-66
2023/07/19 07:19:58;;;;;;;;;;;;;;;20.57;52.20;99489.88;10328697;28;879;-66
2023/07/19 07:24:53;;;;;;;;;;;;;;;20.56;52.14;99490.78;10328634;28;909;-67
2023/07/19 07:29:49;;;;;;;;;;;;;;;20.54;52.25;99487.38;10329243;28;1287;-67
2023/07/19 07:34:45;;;;;;;;;;;;;;;20.61;52.12;99490.53;10327495;28;1914;-73
2023/07/19 07:39:41;;;;;;;;;;;;;;;20.58;52.33;99481.81;10326835;28;1233;-74
2023/07/19 07:44:37;;;;;;;;;;;;;;;20.58;52.21;99488.91;10327927;28;845;-73
2023/07/19 07:49:33;;;;;;;;;;;;;;;20.58;52.23;99496.88;10327298;28;859;-75
2023/07/19 07:54:29;;;;;;;;;;;;;;;20.60;52.34;99497.63;10327322;28;1898;-75
2023/07/19 07:59:25;;;;;;;;;;;;;;;20.61;52.10;99501.13;10327121;28;923;-75
2023/07/19 08:04:20;;;;;;;;;;;;;;;20.58;52.01;99507.47;10326245;28;861;-75
2023/07/19 08:09:16;;;;;;;;;;;;;;;20.56;52.04;99496.94;10327507;28;926;-75
2023/07/19 08:14:12;;;;;;;;;;;;;;;20.58;52.11;99488.91;10325951;28;1955;-75
2023/07/19 08:19:08;;;;;;;;;;;;;;;20.58;52.04;99484.47;10326238;28;957;-75
2023/07/19 08:24:04;;;;;;;;;;;;;;;20.58;52.11;99492.41;10325994;28;825;-75
2023/07/19 08:29:00;;;;;;;;;;;;;;;20.55;52.27;99507.63;10326046;28;889;-75
2023/07/19 08:33:56;;;;;;;;;;;;;;;20.54;52.43;99530.63;10325225;28;1910;-75
2023/07/19 08:38:52;;;;;;;;;;;;;;;20.53;52.40;99506.84;10326457;28;847;-74
2023/07/19 08:43:48;;;;;;;;;;;;;;;20.53;52.37;99488.31;10325939;28;862;-74
2023/07/19 08:48:43;;;;;;;;;;;;;;;20.55;52.45;99481.16;10326399;28;821;-75
2023/07/19 08:53:39;;;;;;;;;;;;;;;20.55;52.42;99479.34;10324399;28;1902;-78
2023/07/19 08:58:35;;;;;;;;;;;;;;;20.57;52.43;99481.94;10325460;28;759;-77
2023/07/19 09:03:31;;;;;;;;;;;;;;;20.57;52.36;99489.88;10326039;28;1049;-78
2023/07/19 09:08:27;;;;;;;;;;;;;;;20.57;52.49;99505.75;10324673;28;992;-79
2023/07/19 09:13:23;;;;;;;;;;;;;;;20.57;52.70;99489.88;10326119;28;1964;-73
2023/07/19 09:18:19;;;;;;;;;;;;;;;20.55;52.46;99482.00;10324831;28;833;-72
2023/07/19 09:23:14;;;;;;;;;;;;;;;20.53;52.61;99477.72;10324134;28;956;-73
2023/07/19 09:28:10;;;;;;;;;;;;;;;20.54;52.58;99485.63;10325626;28;853;-72
2023/07/19 09:33:06;;;;;;;;;;;;;;;20.53;52.67;99498.91;10325742;28;1972;-73
2023/07/19 09:38:02;;;;;;;;;;;;;;;20.50;52.53;99488.50;10324070;28;941;-73
2023/07/19 09:42:58;;;;;;;;;;;;;;;20.48;52.64;99491.22;10325175;28;834;-73
2023/07/19 09:47:54;;;;;;;;;;;;;;;20.47;52.87;99483.38;10324381;28;782;-71
2023/07/19 09:52:51;;;;;;;;;;;;;;;20.48;52.77;99480.63;10324346;28;1965;-74
2023/07/19 09:57:48;;;;;;;;;;;;;;;20.47;52.59;99484.22;10324305;28;926;-74
2023/07/19 10:02:43;;;;;;;;;;;;;;;20.47;52.79;99488.69;10324722;28;978;-74
2023/07/19 10:07:39;;;;;;;;;;;;;;;20.47;52.66;99491.31;10331566;28;863;-75
2023/07/19 10:12:36;;;;;;;;;;;;;;;20.47;52.79;99499.25;10331525;28;1949;-74
2023/07/19 10:17:32;;;;;;;;;;;;;;;20.45;52.75;99495.84;10331072;28;853;-75
2023/07/19 10:22:28;;;;;;;;;;;;;;;20.45;52.95;99491.41;10331169;28;931;-71
2023/07/19 10:27:24;;;;;;;;;;;;;;;20.46;52.75;99486.94;10330104;28;916;-70
2023/07/19 10:32:20;;;;;;;;;;;;;;;20.45;52.88;99480.81;10331089;28;1906;-71
2023/07/19 10:37:15;;;;;;;;;;;;;;;20.46;52.78;99484.31;10330469;28;817;-71
2023/07/19 10:42:11;;;;;;;;;;;;;;;20.45;52.75;99475.50;10330849;28;810;-70
2023/07/19 10:47:07;;;;;;;;;;;;;;;20.51;52.78;99463.69;10330085;28;790;-68
2023/07/19 10:52:03;;;;;;;;;;;;;;;20.57;52.42;99464.25;10329781;28;1059;-69
2023/07/19 10:57:00;;;;;;;;;;;;;;;20.53;52.69;99457.38;10330138;28;2310;-68
2023/07/19 11:01:56;;;;;;;;;;;;;;;20.54;52.58;99460.91;10330145;28;800;-69
2023/07/19 11:06:53;;;;;;;;;;;;;;;20.55;52.49;99467.91;10329942;28;856;-69
2023/07/19 11:11:53;;;;;;;;;;;;;;;20.59;52.49;99458.84;10329752;28;848;-69
2023/07/19 11:16:49;;;;;;;;;;;;;;;20.60;52.61;99459.72;10328800;28;1901;-69
2023/07/19 11:21:45;;;;;;;;;;;;;;;20.65;52.53;99450.53;10329267;28;825;-69
2023/07/19 11:26:41;;;;;;;;;;;;;;;20.64;52.72;99447.97;10329140;28;865;-69
2023/07/19 11:31:40;;;;;;;;;;;;;;;20.61;52.62;99443.72;10328848;28;1228;-69
2023/07/19 11:36:36;;;;;;;;;;;;;;;20.58;52.63;99441.25;10327973;28;1901;-69
2023/07/19 11:41:32;;;;;;;;;;;;;;;20.61;52.74;99437.56;10328492;28;758;-69
2023/07/19 11:46:27;;;;;;;;;;;;;;;20.67;52.37;99435.41;10328236;28;856;-68
2023/07/19 11:51:23;;;;;;;;;;;;;;;20.64;52.45;99424.16;10327806;28;941;-69
2023/07/19 11:56:19;;;;;;;;;;;;;;;20.68;52.51;99423.88;10327233;28;1949;-70
2023/07/19 12:01:18;;;;;;;;;;;;;;;20.63;52.69;99430.41;10326793;28;918;-71
2023/07/19 12:06:14;;;;;;;;;;;;;;;20.65;52.40;99418.75;10326987;28;786;-71
2023/07/19 12:11:10;;;;;;;;;;;;;;;20.67;52.57;99411.59;10326536;28;766;-71
2023/07/19 12:16:06;;;;;;;;;;;;;;;20.70;52.39;99408.75;10327351;28;1893;-70
2023/07/19 12:21:03;;;;;;;;;;;;;;;20.73;52.21;99408.56;10326365;28;849;-71
2023/07/19 12:25:59;;;;;;;;;;;;;;;20.68;52.50;99413.28;10326439;28;841;-71
2023/07/19 12:30:55;;;;;;;;;;;;;;;20.68;52.45;99409.78;10326000;28;1286;-71
2023/07/19 12:35:51;;;;;;;;;;;;;;;20.71;52.36;99399.84;10325520;28;1906;-71
2023/07/19 12:40:47;;;;;;;;;;;;;;;20.68;52.44;99391.25;10325023;28;850;-71
2023/07/19 12:45:43;;;;;;;;;;;;;;;20.70;52.38;99389.38;10325685;28;875;-70
2023/07/19 12:50:39;;;;;;;;;;;;;;;20.70;52.45;99384.91;10325608;28;927;-70
2023/07/19 12:55:35;;;;;;;;;;;;;;;20.69;52.33;99383.19;10326107;28;1957;-70
2023/07/19 13:00:31;;;;;;;;;;;;;;;20.72;52.35;99375.09;10324846;28;908;-70
2023/07/19 13:05:27;;;;;;;;;;;;;;;20.71;52.47;99377.81;10324489;28;881;-70
2023/07/19 13:10:22;;;;;;;;;;;;;;;20.75;52.32;99371.38;10326477;28;873;-71
2023/07/19 13:15:18;;;;;;;;;;;;;;;20.70;52.22;99363.72;10324818;28;1894;-71
2023/07/19 13:20:14;;;;;;;;;;;;;;;20.70;52.26;99365.53;10324804;28;944;-71
2023/07/19 13:25:10;;;;;;;;;;;;;;;20.70;52.32;99362.88;10324920;28;931;-71
2023/07/19 13:30:06;;;;;;;;;;;;;;;20.70;52.31;99362.88;10323701;28;1488;-71
2023/07/19 13:35:02;;;;;;;;;;;;;;;20.68;52.39;99362.13;10324341;28;1972;-71
2023/07/19 13:39:58;;;;;;;;;;;;;;;20.68;52.39;99355.00;10329328;28;939;-70
2023/07/19 13:44:54;;;;;;;;;;;;;;;20.81;52.03;99359.56;10332812;28;873;-71
2023/07/19 13:49:49;;;;;;;;;;;;;;;20.74;52.28;99351.97;10332837;28;850;-71
2023/07/19 13:54:45;;;;;;;;;;;;;;;20.70;52.33;99349.63;10332352;28;2008;-71
2023/07/19 13:59:41;;;;;;;;;;;;;;;20.64;52.53;99342.91;10331580;28;937;-71
2023/07/19 14:04:37;;;;;;;;;;;;;;;20.64;52.53;99347.34;10331335;28;1083;-71
2023/07/19 14:09:33;;;;;;;;;;;;;;;20.66;52.34;99345.47;10332128;28;790;-71
2023/07/19 14:14:29;;;;;;;;;;;;;;;20.69;52.46;99346.13;10331616;28;1890;-71
2023/07/19 14:19:25;;;;;;;;;;;;;;;20.73;52.23;99339.69;10330664;28;763;-70
2023/07/19 14:24:21;;;;;;;;;;;;;;;20.90;51.95;99324.53;10330664;28;940;-71
2023/07/19 14:29:17;;;;;;;;;;;;;;;20.99;51.69;99321.31;10331407;28;929;-71
2023/07/19 14:34:13;;;;;;;;;;;;;;;21.05;51.78;99312.97;10330558;28;1906;-71
2023/07/19 14:39:09;;;;;;;;;;;;;;;21.17;51.31;99317.50;10330451;28;863;-71
2023/07/19 14:44:05;;;;;;;;;;;;;;;21.23;51.28;99306.50;10330165;28;754;-71
2023/07/19 14:49:01;;;;;;;;;;;;;;;21.30;51.13;99296.34;10329385;28;1054;-72
2023/07/19 14:53:57;;;;;;;;;;;;;;;21.13;51.61;99302.72;10330289;28;1897;-71
2023/07/19 14:58:53;;;;;;;;;;;;;;;20.98;52.14;99296.59;10330319;28;789;-72
2023/07/19 15:03:51;;;;;;;;;;;;;;;20.89;52.45;99296.34;10330741;28;1056;-67
2023/07/19 15:08:47;;;;;;;;;;;;;;;20.85;52.48;99287.72;10329349;28;916;-67
2023/07/19 15:13:43;;;;;;;;;;;;;;;20.80;52.56;99303.06;10328797;28;1914;-70
2023/07/19 15:18:39;;;;;;;;;;;;;;;20.76;52.67;99302.41;10329398;28;865;-70
2023/07/19 15:23:34;;;;;;;;;;;;;;;20.74;52.69;99304.31;10329011;28;934;-70
2023/07/19 15:28:30;;;;;;;;;;;;;;;20.72;52.69;99298.28;10327615;28;869;-70
2023/07/19 15:33:26;;;;;;;;;;;;;;;20.71;52.59;99307.16;10328109;28;1914;-70
2023/07/19 15:38:22;;;;;;;;;;;;;;;20.70;52.58;99309.91;10327817;28;778;-70
2023/07/19 15:43:18;;;;;;;;;;;;;;;20.68;52.62;99315.28;10326527;28;1164;-69
2023/07/19 15:48:14;;;;;;;;;;;;;;;20.68;52.49;99332.97;10326613;28;965;-69
2023/07/19 15:53:10;;;;;;;;;;;;;;;20.65;52.69;99338.47;10327081;28;1894;-69
2023/07/19 15:58:07;;;;;;;;;;;;;;;20.64;52.68;99350.00;10327005;28;766;-68
2023/07/19 16:03:03;;;;;;;;;;;;;;;20.63;52.79;99348.31;10327234;28;891;-69
2023/07/19 16:07:58;;;;;;;;;;;;;;;20.62;52.74;99344.81;10326038;28;1013;-69
2023/07/19 16:12:54;;;;;;;;;;;;;;;20.60;52.76;99333.44;10326277;28;1898;-69
2023/07/19 16:17:50;;;;;;;;;;;;;;;20.59;52.64;99329.09;10326753;28;806;-68
2023/07/19 16:22:46;;;;;;;;;;;;;;;20.60;52.61;99361.75;10326568;28;865;-69
2023/07/19 16:27:42;;;;;;;;;;;;;;;20.60;52.71;99382.91;10326533;28;855;-69
2023/07/19 16:32:38;;;;;;;;;;;;;;;20.60;52.86;99399.66;10325693;28;2041;-69
2023/07/19 16:37:34;;;;;;;;;;;;;;;20.58;52.92;99401.53;10326366;28;875;-69
2023/07/19 16:42:30;;;;;;;;;;;;;;;20.58;52.84;99401.53;10326262;28;848;-70
2023/07/19 16:47:28;;;;;;;;;;;;;;;20.56;52.87;99401.63;10326245;28;839;-70
2023/07/19 16:52:24;;;;;;;;;;;;;;;20.56;52.75;99414.00;10325372;28;829;-70
2023/07/19 16:57:20;;;;;;;;;;;;;;;20.56;52.90;99414.84;10325812;28;1961;-70
2023/07/19 17:02:16;;;;;;;;;;;;;;;20.56;53.00;99424.59;10325229;28;972;-70
2023/07/19 17:07:12;;;;;;;;;;;;;;;20.55;52.94;99415.81;10324914;28;875;-69
2023/07/19 17:12:08;;;;;;;;;;;;;;;20.55;52.82;99422.91;10324429;28;1204;-68
2023/07/19 17:17:04;;;;;;;;;;;;;;;20.54;52.80;99416.78;10333097;28;1894;-68
2023/07/19 17:22:00;;;;;;;;;;;;;;;20.54;52.77;99402.66;10333116;28;967;-68
2023/07/19 17:26:56;;;;;;;;;;;;;;;20.54;52.70;99414.13;10333703;28;843;-69
2023/07/19 17:31:52;;;;;;;;;;;;;;;20.55;52.73;99420.25;10315867;28;1109;-69
2023/07/19 17:36:50;;;;;;;;;;;;;;;20.55;52.86;99417.63;10332582;28;1968;-69
2023/07/19 17:41:46;;;;;;;;;;;;;;;20.54;52.83;99416.78;10331657;28;893;-70
2023/07/19 17:46:42;;;;;;;;;;;;;;;20.53;52.86;99417.66;10331632;28;849;-69
2023/07/19 17:51:38;;;;;;;;;;;;;;;20.53;52.93;99425.59;10332160;28;961;-69
2023/07/19 17:56:34;;;;;;;;;;;;;;;20.53;52.80;99420.31;10331846;28;1886;-69
2023/07/19 18:01:30;;;;;;;;;;;;;;;20.55;52.80;99433.50;10330965;28;915;-69
2023/07/19 18:06:25;;;;;;;;;;;;;;;20.54;52.82;99447.66;10331442;28;926;-69
2023/07/19 18:11:21;;;;;;;;;;;;;;;20.54;52.84;99452.97;10331182;28;972;-68
2023/07/19 18:16:17;;;;;;;;;;;;;;;20.53;52.97;99456.53;10331004;28;2018;-67
2023/07/19 18:21:13;;;;;;;;;;;;;;;20.54;53.02;99447.66;10331396;28;886;-68
2023/07/19 18:26:09;;;;;;;;;;;;;;;20.52;53.00;99444.25;10331434;28;787;-69
2023/07/19 18:31:05;;;;;;;;;;;;;;;20.51;52.94;99450.47;10331284;28;1129;-69
2023/07/19 18:36:01;;;;;;;;;;;;;;;20.52;53.07;99449.53;10331066;28;1909;-68
2023/07/19 18:40:57;;;;;;;;;;;;;;;20.51;52.96;99447.81;10330491;28;876;-68
2023/07/19 18:45:54;;;;;;;;;;;;;;;20.51;53.07;99437.22;10330902;28;809;-68
2023/07/19 18:50:50;;;;;;;;;;;;;;;20.51;53.18;99445.16;10330176;28;877;-69
2023/07/19 18:55:46;;;;;;;;;;;;;;;20.50;53.04;99446.13;10330452;28;1955;-68
2023/07/19 19:00:42;;;;;;;;;;;;;;;20.52;53.24;99441.59;10329840;28;868;-68
2023/07/19 19:05:37;;;;;;;;;;;;;;;20.49;53.18;99445.28;10330409;28;834;-68
2023/07/19 19:10:33;;;;;;;;;;;;;;;20.51;53.16;99437.22;10328806;28;983;-69
2023/07/19 19:15:30;;;;;;;;;;;;;;;20.49;52.99;99423.25;10329121;28;1901;-69
2023/07/19 19:20:25;;;;;;;;;;;;;;;20.49;53.16;99434.69;10328930;28;927;-69
2023/07/19 19:25:22;;;;;;;;;;;;;;;20.49;53.05;99440.00;10329249;28;821;-69
2023/07/19 19:30:18;;;;;;;;;;;;;;;20.50;53.06;99441.69;10328631;28;1370;-69
2023/07/19 19:35:13;;;;;;;;;;;;;;;20.51;53.09;99447.81;10327842;28;1914;-70
2023/07/19 19:40:10;;;;;;;;;;;;;;;20.49;53.05;99440.00;10327516;28;996;-69
2023/07/19 19:45:06;;;;;;;;;;;;;;;20.50;53.02;99448.78;10327949;28;790;-69
2023/07/19 19:50:01;;;;;;;;;;;;;;;20.50;53.12;99457.56;10327699;28;766;-69
2023/07/19 19:54:57;;;;;;;;;;;;;;;20.49;52.89;99455.88;10327122;28;1948;-70
2023/07/19 19:59:53;;;;;;;;;;;;;;;20.50;52.98;99452.25;10327919;28;887;-69
2023/07/19 20:04:49;;;;;;;;;;;;;;;20.50;53.08;99448.78;10326539;28;932;-69
2023/07/19 20:09:45;;;;;;;;;;;;;;;20.49;53.06;99452.38;10327519;28;849;-69
2023/07/19 20:14:41;;;;;;;;;;;;;;;20.49;53.03;99453.22;10327168;28;1898;-70
2023/07/19 20:19:37;;;;;;;;;;;;;;;20.49;53.05;99462.97;10326632;28;830;-69
2023/07/19 20:24:33;;;;;;;;;;;;;;;20.49;53.26;99461.16;10326581;28;851;-70
2023/07/19 20:29:29;;;;;;;;;;;;;;;20.48;53.12;99459.44;10326631;28;1145;-69
2023/07/19 20:34:26;;;;;;;;;;;;;;;20.48;53.01;99459.44;10325669;28;1910;-69
2023/07/19 20:39:22;;;;;;;;;;;;;;;20.48;52.88;99461.25;10326584;28;887;-69
2023/07/19 20:44:18;;;;;;;;;;;;;;;20.48;53.04;99455.94;10325820;28;964;-69
2023/07/19 20:49:15;;;;;;;;;;;;;;;20.48;53.04;99459.44;10324977;28;782;-70
2023/07/19 20:54:12;;;;;;;;;;;;;;;20.49;52.92;99465.63;10325870;28;1961;-70
2023/07/19 20:59:08;;;;;;;;;;;;;;;20.47;52.99;99468.34;10323994;28;1215;-72
2023/07/19 21:04:04;;;;;;;;;;;;;;;20.48;53.12;99469.19;10324374;28;1054;-71
2023/07/19 21:09:00;;;;;;;;;;;;;;;20.46;52.99;99461.34;10325288;28;896;-72
2023/07/19 21:13:56;;;;;;;;;;;;;;;20.47;53.05;99470.16;10326114;28;1902;-71
2023/07/19 21:18:52;;;;;;;;;;;;;;;20.47;53.13;99470.16;10325742;28;822;-72
2023/07/19 21:23:47;;;;;;;;;;;;;;;20.48;53.21;99474.47;10325630;28;853;-72
2023/07/19 21:28:43;;;;;;;;;;;;;;;20.47;53.20;99480.72;10324956;28;759;-73
2023/07/19 21:33:39;;;;;;;;;;;;;;;20.47;53.31;99483.38;10325736;28;1998;-72
2023/07/19 21:38:35;;;;;;;;;;;;;;;20.46;53.04;99493.13;10324682;28;819;-72
2023/07/19 21:43:31;;;;;;;;;;;;;;;20.46;53.08;99490.47;10325314;28;894;-72
2023/07/19 21:48:27;;;;;;;;;;;;;;;20.46;53.24;99487.81;10325178;28;889;-71
2023/07/19 21:53:23;;;;;;;;;;;;;;;20.46;53.22;99492.25;10325034;28;1906;-72
2023/07/19 21:58:19;;;;;;;;;;;;;;;20.46;53.18;99502.84;10324478;28;798;-71
2023/07/19 22:03:14;;;;;;;;;;;;;;;20.46;53.14;99505.47;10331853;28;978;-71
2023/07/19 22:08:10;;;;;;;;;;;;;;;20.45;53.07;99501.13;10331978;28;840;-72
2023/07/19 22:13:06;;;;;;;;;;;;;;;20.45;53.15;99509.94;10330953;28;1882;-72
2023/07/19 22:18:02;;;;;;;;;;;;;;;20.44;53.13;99508.25;10331461;28;849;-72
2023/07/19 22:23:00;;;;;;;;;;;;;;;20.44;53.20;99507.38;10331193;28;920;-72
2023/07/19 22:27:55;;;;;;;;;;;;;;;20.44;53.15;99504.75;10331562;28;886;-72
2023/07/19 22:32:51;;;;;;;;;;;;;;;20.43;53.25;99497.72;10331035;28;1992;-72
2023/07/19 22:37:47;;;;;;;;;;;;;;;20.43;53.15;99501.22;10330656;28;968;-71
2023/07/19 22:42:43;;;;;;;;;;;;;;;20.43;53.16;99497.72;10330605;28;917;-71
2023/07/19 22:47:39;;;;;;;;;;;;;;;20.43;53.15;99489.78;10330594;28;830;-71
2023/07/19 22:52:36;;;;;;;;;;;;;;;20.42;53.25;99499.53;10330081;28;927;-72
2023/07/19 22:57:32;;;;;;;;;;;;;;;20.42;53.23;99490.75;10330502;28;1939;-72
2023/07/19 23:02:28;;;;;;;;;;;;;;;20.42;53.12;99485.44;10330349;28;810;-71
2023/07/19 23:07:24;;;;;;;;;;;;;;;20.41;53.33;99486.38;10330107;28;826;-71
2023/07/19 23:12:20;;;;;;;;;;;;;;;20.41;53.16;99489.00;10328444;28;970;-71
2023/07/19 23:17:16;;;;;;;;;;;;;;;20.40;53.09;99484.66;10329896;28;1953;-72
2023/07/19 23:22:11;;;;;;;;;;;;;;;20.41;53.24;99486.38;10328938;28;871;-72
2023/07/19 23:27:07;;;;;;;;;;;;;;;20.39;53.11;99481.19;10329306;28;882;-71
2023/07/19 23:32:03;;;;;;;;;;;;;;;20.39;53.30;99486.47;10328210;28;1485;-71
2023/07/19 23:36:59;;;;;;;;;;;;;;;20.39;53.32;99491.75;10328189;28;1906;-71
2023/07/19 23:41:55;;;;;;;;;;;;;;;20.38;53.20;99489.19;10328059;28;776;-72
2023/07/19 23:46:51;;;;;;;;;;;;;;;20.37;53.26;99485.69;10328486;28;878;-72
2023/07/19 23:51:47;;;;;;;;;;;;;;;20.38;53.51;99486.53;10327670;28;997;-72
2023/07/19 23:56:43;;;;;;;;;;;;;;;20.36;53.24;99474.28;10327385;28;1890;-72
